Pagrindinis puslapis
METAR-TAF:

METAR-TAF

Oro uostai :

Altenstadt, Vokietija

platuma: 47-50N, ilguma: 010-52E, Aukštis: 739 m

Dabartinis oras

Ataskaita buvo paskelbta 40 minutes, ne 03:20 UTC
Vėjas 9 kt iš Vakarų
Temperatūra 1°C
Drėgmė 93%
Slėgis 1024 hPa

METAR: ETHA 180320Z AUTO 27009KT //// // ////// 01/00 Q1024 ///

Laikas: 05:00 (04:00 UTC)

Prognozė

Ataskaita buvo paskelbta 18 valandos ir 28 minutes, ne 09:32 UTC
Prognozė galioja nuo 17 metu 09 UTC su 17 metu 18 UTC
Vėjas 8 kt iš Vakarų/Pietvakarių
Matomumas 10 km arba daugiau
Išsisklaidę debesys ne aukštis 24000 ft
Tapsmas
nuo 17 metu 16 UTC su 17 metu 18 UTC
Vėjas 10 kt iš Vakarų
Matomumas: 1020 m
Išsisklaidę debesys ne aukštis 5000 ft
Su prošvaistėmis ne aukštis 15000 ft

TAF: ETHA 170932Z 1709/1718 24008KT 9999 NSW SCT240 BECMG 1716/1718 26010KT 9999 NSW SCT050 BKN150 CANCEL 1020

Orai ataskaitas ir orų prognozės (METAR, TAF).

turimą stotys yra geltonos ir raudonos taškus žemėlapyje.

Perkelti pele per norėdami pamatyti stoties vardą.

Tada spustelėkite, norėdami matyti oro stebėjimo ir prognozės.

Norėdami pakeisti žemėlapį: spustelėkite ant žalios mygtukų su juodo kryžiaus žemyn,; žalią mygtuką su brūkšneliu, jei norite nutolinti; arba žalių rodyklių gretimoms žemėlapius.


METAR-TAF: